createdAt,value
2018-09-18T00:00:18.138Z,3.20
2018-09-18T00:02:46.093Z,3.13
2018-09-18T00:05:13.947Z,3.57
2018-09-18T00:07:41.875Z,3.17
2018-09-18T00:10:09.843Z,3.63
2018-09-18T00:12:37.740Z,3.37
2018-09-18T00:15:05.668Z,3.30
2018-09-18T00:17:33.638Z,3.13
2018-09-18T00:20:01.499Z,3.50
2018-09-18T00:22:29.447Z,3.53
2018-09-18T00:24:57.399Z,3.37
2018-09-18T00:27:25.266Z,3.50
2018-09-18T00:29:53.134Z,3.47
2018-09-18T00:32:21.005Z,3.03
2018-09-18T00:34:48.863Z,3.13
2018-09-18T00:37:16.735Z,3.60
2018-09-18T00:39:44.595Z,3.10
2018-09-18T00:42:12.474Z,3.80
2018-09-18T00:44:40.328Z,3.80
2018-09-18T00:47:08.195Z,4.17
2018-09-18T00:49:36.047Z,4.00
2018-09-18T00:52:04.011Z,3.57
2018-09-18T00:54:31.918Z,3.47
2018-09-18T00:56:59.870Z,4.27
2018-09-18T00:59:27.749Z,4.00
2018-09-18T01:01:55.806Z,4.00
2018-09-18T01:04:23.667Z,4.23
2018-09-18T01:06:52.578Z,4.20
2018-09-18T01:09:20.548Z,4.30
2018-09-18T01:11:48.413Z,3.83
2018-09-18T01:14:16.283Z,4.33
2018-09-18T01:16:44.155Z,3.53
2018-09-18T01:19:12.054Z,3.93
2018-09-18T01:21:39.924Z,4.77
2018-09-18T01:24:07.782Z,4.00
2018-09-18T01:26:35.638Z,4.40
2018-09-18T01:29:03.610Z,4.30
2018-09-18T01:31:31.480Z,3.77
2018-09-18T01:33:59.343Z,4.47
2018-09-18T01:36:27.199Z,3.77
2018-09-18T01:38:56.854Z,4.43
2018-09-18T01:41:24.850Z,4.13
2018-09-18T01:43:52.836Z,4.07
2018-09-18T01:46:20.688Z,4.30
2018-09-18T01:48:48.545Z,3.63
2018-09-18T01:51:16.431Z,3.90
2018-09-18T01:53:44.291Z,4.23
2018-09-18T01:56:12.155Z,4.23
2018-09-18T01:58:40.032Z,4.20
2018-09-18T02:01:07.887Z,3.87
2018-09-18T02:03:35.748Z,3.97
2018-09-18T02:06:03.674Z,4.10
2018-09-18T02:08:31.593Z,3.60
2018-09-18T02:10:59.464Z,4.30
2018-09-18T02:13:27.427Z,4.27
2018-09-18T02:15:55.291Z,3.83
2018-09-18T02:18:23.163Z,4.53
2018-09-18T02:20:51.027Z,4.33
2018-09-18T02:23:18.895Z,3.73
2018-09-18T02:25:47.146Z,4.43
2018-09-18T02:28:15.010Z,4.23
2018-09-18T02:30:42.866Z,3.87
2018-09-18T02:33:10.771Z,4.43
2018-09-18T02:35:38.641Z,4.23
2018-09-18T02:38:06.527Z,5.03
2018-09-18T02:40:34.391Z,4.20
2018-09-18T02:43:02.255Z,4.60
2018-09-18T02:45:30.179Z,3.87
2018-09-18T02:47:58.075Z,4.20
2018-09-18T02:50:25.943Z,4.23
2018-09-18T02:52:53.806Z,4.40
2018-09-18T02:55:21.663Z,4.00
2018-09-18T02:57:49.555Z,3.93
2018-09-18T03:00:17.507Z,3.90
2018-09-18T03:02:45.435Z,4.40
2018-09-18T03:05:13.300Z,4.30
2018-09-18T03:07:41.166Z,4.07
2018-09-18T03:10:09.137Z,4.07
2018-09-18T03:12:36.966Z,4.00
2018-09-18T03:15:04.859Z,3.90
2018-09-18T03:17:32.791Z,3.87
2018-09-18T03:20:00.652Z,4.17
2018-09-18T03:22:28.524Z,3.90
2018-09-18T03:24:56.399Z,4.10
2018-09-18T03:27:24.290Z,3.57
2018-09-18T03:29:52.120Z,3.53
2018-09-18T03:32:19.997Z,3.67
2018-09-18T03:34:47.891Z,3.70
2018-09-18T03:37:15.819Z,3.67
2018-09-18T03:39:43.699Z,3.53
2018-09-18T03:42:11.567Z,3.90
2018-09-18T03:44:39.438Z,3.33
2018-09-18T03:47:07.396Z,3.23
2018-09-18T03:49:35.304Z,3.53
2018-09-18T03:52:06.499Z,3.20
2018-09-18T03:54:34.402Z,3.57
2018-09-18T03:57:02.259Z,3.70
2018-09-18T03:59:30.186Z,3.20
2018-09-18T04:01:58.051Z,3.40
2018-09-18T04:04:25.959Z,3.30
2018-09-18T04:06:53.819Z,3.43
2018-09-18T04:09:21.723Z,3.40
2018-09-18T04:11:49.587Z,3.83
2018-09-18T04:14:17.442Z,3.60
2018-09-18T04:16:45.357Z,3.87
2018-09-18T04:19:13.245Z,3.60
2018-09-18T04:21:41.775Z,3.83
2018-09-18T04:24:09.751Z,4.47
2018-09-18T04:26:38.867Z,4.13
2018-09-18T04:29:09.838Z,3.70
2018-09-18T04:31:39.182Z,4.40
2018-09-18T04:34:07.062Z,4.50
2018-09-18T04:36:34.974Z,3.60
2018-09-18T04:39:02.902Z,4.30
2018-09-18T04:41:30.758Z,4.07
2018-09-18T04:43:58.631Z,3.90
2018-09-18T04:46:26.496Z,3.57
2018-09-18T04:48:54.351Z,3.80
2018-09-18T04:51:22.219Z,3.90
2018-09-18T04:53:50.075Z,3.57
2018-09-18T04:56:18.002Z,4.20
2018-09-18T04:58:45.882Z,3.63
2018-09-18T05:01:13.747Z,4.13
2018-09-18T05:03:41.615Z,3.90
2018-09-18T05:06:09.492Z,4.00
2018-09-18T05:08:37.404Z,4.60
2018-09-18T05:11:05.263Z,4.43
2018-09-18T05:13:33.184Z,4.73
2018-09-18T05:16:01.063Z,3.97
2018-09-18T05:18:29.051Z,4.37
2018-09-18T05:20:56.906Z,4.17
2018-09-18T05:23:24.859Z,4.33
2018-09-18T05:25:52.714Z,4.27
2018-09-18T05:28:20.675Z,4.60
2018-09-18T05:30:48.539Z,4.67
2018-09-18T05:33:16.399Z,4.50
2018-09-18T05:35:44.275Z,4.57
2018-09-18T05:38:12.135Z,5.10
2018-09-18T05:40:40.049Z,4.30
2018-09-18T05:43:08.297Z,4.80
2018-09-18T05:45:36.139Z,4.87
2018-09-18T05:48:04.074Z,4.60
2018-09-18T05:50:31.942Z,5.37
2018-09-18T05:52:59.877Z,5.23
2018-09-18T05:55:27.832Z,5.37
2018-09-18T05:57:55.814Z,4.87
2018-09-18T06:00:23.708Z,6.13
2018-09-18T06:02:51.615Z,5.37
2018-09-18T06:05:19.523Z,5.40
2018-09-18T06:07:47.604Z,4.93
2018-09-18T06:10:15.569Z,4.87
2018-09-18T06:12:43.523Z,5.40
2018-09-18T06:15:11.491Z,18.17
2018-09-18T06:17:39.351Z,5.10
2018-09-18T06:20:07.280Z,5.43
2018-09-18T06:22:35.199Z,4.70
2018-09-18T06:25:03.067Z,5.13
2018-09-18T06:27:30.935Z,4.83
2018-09-18T06:29:58.811Z,5.73
2018-09-18T06:32:26.695Z,4.90
2018-09-18T06:34:54.551Z,5.23
2018-09-18T06:37:22.430Z,4.57
2018-09-18T06:39:50.286Z,5.37
2018-09-18T06:42:18.210Z,5.27
2018-09-18T06:44:46.868Z,5.03
2018-09-18T06:47:14.808Z,4.90
2018-09-18T06:49:42.912Z,5.43
2018-09-18T06:52:17.620Z,5.20
2018-09-18T06:54:45.467Z,6.57
2018-09-18T06:57:13.366Z,6.40
2018-09-18T06:59:41.227Z,5.93
2018-09-18T07:02:09.159Z,6.13
2018-09-18T07:04:37.815Z,6.07
2018-09-18T07:07:05.706Z,6.43
2018-09-18T07:09:33.571Z,5.90
2018-09-18T07:12:01.456Z,6.03
2018-09-18T07:14:31.009Z,6.03
2018-09-18T07:16:59.230Z,7.67
2018-09-18T07:19:27.106Z,5.63
2018-09-18T07:21:54.968Z,5.37
2018-09-18T07:24:22.847Z,5.30
2018-09-18T07:26:50.764Z,5.67
2018-09-18T07:29:18.648Z,5.60
2018-09-18T07:31:46.547Z,5.57
2018-09-18T07:34:14.405Z,5.40
2018-09-18T07:36:42.267Z,5.27
2018-09-18T07:39:11.379Z,5.10
2018-09-18T07:41:39.242Z,5.40
2018-09-18T07:44:07.151Z,5.13
2018-09-18T07:46:35.071Z,5.07
2018-09-18T07:49:03.952Z,5.47
2018-09-18T07:51:33.275Z,4.43
2018-09-18T07:54:01.597Z,4.80
2018-09-18T07:56:29.766Z,4.30
2018-09-18T07:58:58.051Z,4.50
2018-09-18T08:01:25.935Z,5.80
2018-09-18T08:03:53.875Z,6.10
2018-09-18T08:06:21.738Z,5.80
2018-09-18T08:08:49.627Z,5.63
2018-09-18T08:11:17.481Z,6.33
2018-09-18T08:13:45.355Z,6.00
2018-09-18T08:16:13.226Z,6.43
2018-09-18T08:18:41.118Z,5.70
2018-09-18T08:21:08.988Z,5.97
2018-09-18T08:23:36.971Z,6.87
2018-09-18T08:26:04.884Z,6.43
2018-09-18T08:28:32.747Z,5.83
2018-09-18T08:31:00.623Z,5.87
2018-09-18T08:33:28.575Z,6.23
2018-09-18T08:35:56.437Z,7.13
2018-09-18T08:38:30.510Z,6.27
2018-09-18T08:40:58.347Z,6.57
2018-09-18T08:43:26.235Z,5.73
2018-09-18T08:45:56.898Z,6.87
2018-09-18T08:48:29.448Z,7.27
2018-09-18T08:50:57.723Z,6.20
2018-09-18T08:53:25.561Z,5.83
2018-09-18T08:55:53.680Z,6.33
2018-09-18T08:58:21.562Z,6.00
2018-09-18T09:00:49.420Z,6.37
2018-09-18T09:03:18.401Z,5.97
2018-09-18T09:05:46.259Z,5.80
2018-09-18T09:08:14.557Z,5.83
2018-09-18T09:10:42.312Z,6.17
2018-09-18T09:13:10.135Z,5.27
2018-09-18T09:15:38.036Z,5.27
2018-09-18T09:18:06.018Z,4.90
2018-09-18T09:20:33.879Z,5.20
2018-09-18T09:23:01.912Z,4.83
2018-09-18T09:25:30.266Z,5.00
2018-09-18T09:27:58.177Z,4.80
2018-09-18T09:30:26.152Z,4.37
2018-09-18T09:32:54.111Z,4.83
2018-09-18T09:35:21.971Z,5.87
2018-09-18T09:37:49.829Z,4.57
2018-09-18T09:40:17.727Z,4.63
2018-09-18T09:42:45.603Z,4.50
2018-09-18T09:45:13.632Z,4.57
2018-09-18T09:47:41.471Z,4.40
2018-09-18T09:50:09.419Z,5.43
2018-09-18T09:52:37.276Z,5.77
2018-09-18T09:55:05.167Z,4.27
2018-09-18T09:57:33.031Z,4.90
2018-09-18T10:00:00.911Z,4.20
2018-09-18T10:02:29.891Z,5.03
2018-09-18T10:04:57.851Z,5.03
2018-09-18T10:07:25.828Z,4.73
2018-09-18T10:09:53.835Z,4.37
2018-09-18T10:12:21.707Z,4.30
2018-09-18T10:14:49.602Z,4.23
2018-09-18T10:17:18.788Z,4.67
2018-09-18T10:19:46.814Z,4.30
2018-09-18T10:22:14.691Z,4.07
2018-09-18T10:24:42.559Z,3.90
2018-09-18T10:27:10.462Z,3.93
2018-09-18T10:29:38.339Z,4.23
2018-09-18T10:32:06.390Z,4.63
2018-09-18T10:34:34.334Z,4.53
2018-09-18T10:37:02.245Z,3.60
2018-09-18T10:39:30.223Z,3.87
2018-09-18T10:41:58.163Z,4.03
2018-09-18T10:44:25.904Z,4.10
2018-09-18T10:46:53.774Z,4.27
2018-09-18T10:49:21.726Z,3.83
2018-09-18T10:51:52.060Z,4.10
2018-09-18T10:54:19.900Z,4.20
2018-09-18T10:56:47.787Z,3.73
2018-09-18T10:59:15.645Z,4.20
2018-09-18T11:01:43.542Z,4.00
2018-09-18T11:04:11.415Z,4.30
2018-09-18T11:06:39.253Z,3.87
2018-09-18T11:09:07.691Z,4.10
2018-09-18T11:11:35.605Z,3.97
2018-09-18T11:14:03.591Z,3.97
2018-09-18T11:16:31.445Z,3.73
2018-09-18T11:18:59.264Z,4.10
2018-09-18T11:21:27.266Z,4.13
2018-09-18T11:23:55.056Z,4.10
2018-09-18T11:26:22.888Z,4.03
2018-09-18T11:28:50.751Z,4.07
2018-09-18T11:31:18.656Z,4.70
2018-09-18T11:33:46.516Z,4.30
2018-09-18T11:36:14.407Z,4.20
2018-09-18T11:38:42.265Z,3.80
2018-09-18T11:41:10.127Z,4.10
2018-09-18T11:43:39.573Z,4.10
2018-09-18T11:46:07.774Z,4.13
2018-09-18T11:48:35.454Z,4.80
2018-09-18T11:51:03.308Z,4.23
2018-09-18T11:53:31.215Z,4.50
2018-09-18T11:55:59.116Z,4.03
2018-09-18T11:58:27.049Z,4.13
2018-09-18T12:00:56.067Z,4.17
2018-09-18T12:03:23.931Z,3.80
2018-09-18T12:05:51.806Z,4.10
2018-09-18T12:08:19.659Z,4.40
2018-09-18T12:10:47.527Z,4.20
2018-09-18T12:13:15.403Z,4.60
2018-09-18T12:15:43.259Z,5.57
2018-09-18T12:18:11.127Z,3.80
2018-09-18T12:20:38.987Z,4.27
2018-09-18T12:23:06.869Z,3.80
2018-09-18T12:25:34.740Z,4.07
2018-09-18T12:28:02.611Z,4.93
2018-09-18T12:30:30.551Z,4.23
2018-09-18T12:32:58.419Z,4.70
2018-09-18T12:35:26.422Z,3.90
2018-09-18T12:37:54.165Z,4.10
2018-09-18T12:40:22.040Z,4.87
2018-09-18T12:42:49.957Z,4.10
2018-09-18T12:45:17.819Z,3.90
2018-09-18T12:47:45.687Z,4.47
2018-09-18T12:50:13.716Z,4.30
2018-09-18T12:52:41.407Z,4.07
2018-09-18T12:55:09.317Z,3.97
2018-09-18T12:57:37.340Z,4.27
2018-09-18T13:00:05.268Z,4.17
2018-09-18T13:02:33.112Z,4.10
2018-09-18T13:05:00.984Z,3.90
2018-09-18T13:07:28.877Z,4.33
2018-09-18T13:09:56.749Z,3.63
2018-09-18T13:12:24.607Z,3.83
2018-09-18T13:14:52.484Z,4.03
2018-09-18T13:17:20.432Z,3.70
2018-09-18T13:19:48.225Z,3.70
2018-09-18T13:22:16.106Z,4.03
2018-09-18T13:24:43.967Z,3.80
2018-09-18T13:27:11.847Z,3.87
2018-09-18T13:29:39.821Z,4.10
2018-09-18T13:32:07.835Z,4.17
2018-09-18T13:34:35.712Z,3.70
2018-09-18T13:37:03.631Z,4.10
2018-09-18T13:39:31.504Z,3.63
2018-09-18T13:41:59.374Z,3.83
2018-09-18T13:44:27.299Z,3.70
2018-09-18T13:46:55.164Z,3.93
2018-09-18T13:49:23.038Z,3.57
2018-09-18T13:51:52.205Z,4.03
2018-09-18T13:54:20.068Z,4.07
2018-09-18T13:56:48.071Z,3.43
2018-09-18T13:59:15.863Z,3.70
2018-09-18T14:01:43.925Z,3.87
2018-09-18T14:04:11.669Z,3.43
2018-09-18T14:06:39.527Z,3.67
2018-09-18T14:09:08.097Z,3.73
2018-09-18T14:11:35.945Z,4.40
2018-09-18T14:14:03.834Z,3.80
2018-09-18T14:16:31.703Z,3.50
2018-09-18T14:18:59.624Z,3.60
2018-09-18T14:21:27.841Z,3.20
2018-09-18T14:23:55.688Z,3.77
2018-09-18T14:26:23.790Z,3.40
2018-09-18T14:28:51.613Z,3.80
2018-09-18T14:31:19.487Z,3.50
2018-09-18T14:33:47.355Z,3.20
2018-09-18T14:36:15.259Z,3.50
2018-09-18T14:38:43.129Z,3.20
2018-09-18T14:41:10.993Z,3.20
2018-09-18T14:43:38.871Z,3.10
2018-09-18T14:46:06.759Z,3.90
2018-09-18T14:48:34.647Z,3.67
2018-09-18T14:51:02.526Z,2.93
2018-09-18T14:53:30.480Z,3.17
2018-09-18T14:55:58.368Z,3.10
2018-09-18T14:58:26.260Z,3.40
2018-09-18T15:00:54.122Z,3.37
2018-09-18T15:03:21.986Z,2.90
2018-09-18T15:05:49.848Z,3.40
2018-09-18T15:08:17.723Z,3.20
2018-09-18T15:10:45.587Z,3.43
2018-09-18T15:13:13.523Z,3.20
2018-09-18T15:15:41.500Z,3.70
2018-09-18T15:18:09.256Z,3.23
2018-09-18T15:20:37.124Z,3.10
2018-09-18T15:23:05.003Z,3.47
2018-09-18T15:25:32.876Z,2.93
2018-09-18T15:28:00.851Z,3.60
2018-09-18T15:30:28.636Z,3.53
2018-09-18T15:32:56.507Z,4.07
2018-09-18T15:35:24.368Z,3.50
2018-09-18T15:37:52.231Z,3.20
2018-09-18T15:40:20.095Z,3.60
2018-09-18T15:42:48.002Z,3.60
2018-09-18T15:45:16.582Z,3.40
2018-09-18T15:47:44.449Z,3.20
2018-09-18T15:50:12.315Z,3.43
2018-09-18T15:52:40.231Z,3.67
2018-09-18T15:55:08.140Z,3.50
2018-09-18T15:57:35.961Z,3.30
2018-09-18T16:00:03.867Z,3.10
2018-09-18T16:02:31.730Z,3.60
2018-09-18T16:04:59.603Z,4.03
2018-09-18T16:07:27.541Z,3.60
2018-09-18T16:09:56.505Z,4.20
2018-09-18T16:12:24.384Z,3.50
2018-09-18T16:14:52.468Z,3.50
2018-09-18T16:17:20.332Z,3.30
2018-09-18T16:19:49.251Z,3.83
2018-09-18T16:22:17.231Z,3.50
2018-09-18T16:24:45.222Z,3.07
2018-09-18T16:27:13.131Z,3.27
2018-09-18T16:29:41.134Z,3.73
2018-09-18T16:32:09.072Z,3.33
2018-09-18T16:34:36.943Z,3.33
2018-09-18T16:37:04.856Z,4.00
2018-09-18T16:39:32.719Z,3.87
2018-09-18T16:42:00.635Z,3.70
2018-09-18T16:44:28.543Z,3.77
2018-09-18T16:46:56.554Z,3.70
2018-09-18T16:49:24.360Z,3.57
2018-09-18T16:51:55.995Z,4.00
2018-09-18T16:54:23.969Z,4.20
2018-09-18T16:56:51.910Z,3.60
2018-09-18T16:59:20.083Z,3.67
2018-09-18T17:01:48.811Z,4.13
2018-09-18T17:04:16.699Z,3.60
2018-09-18T17:06:44.674Z,4.07
2018-09-18T17:09:12.603Z,3.67
2018-09-18T17:11:40.471Z,3.70
2018-09-18T17:14:08.360Z,4.07
2018-09-18T17:16:36.329Z,3.30
2018-09-18T17:19:04.175Z,3.20
2018-09-18T17:21:32.059Z,3.33
2018-09-18T17:24:00.018Z,3.73
2018-09-18T17:26:27.898Z,3.07
2018-09-18T17:28:55.980Z,3.57
2018-09-18T17:31:23.708Z,3.60
2018-09-18T17:33:51.583Z,3.77
2018-09-18T17:36:19.459Z,3.93
2018-09-18T17:38:47.414Z,3.37
2018-09-18T17:41:15.313Z,3.10
2018-09-18T17:43:43.204Z,3.40
2018-09-18T17:46:11.067Z,3.50
2018-09-18T17:48:38.951Z,4.30
2018-09-18T17:51:06.913Z,3.73
2018-09-18T17:53:34.799Z,3.20
2018-09-18T17:56:02.749Z,3.60
2018-09-18T17:58:30.638Z,3.73
2018-09-18T18:00:58.512Z,3.73
2018-09-18T18:03:26.375Z,3.57
2018-09-18T18:05:54.386Z,3.20
2018-09-18T18:08:22.443Z,5.27
2018-09-18T18:10:50.301Z,4.17
2018-09-18T18:13:18.147Z,4.87
2018-09-18T18:15:46.038Z,3.97
2018-09-18T18:18:14.046Z,3.80
2018-09-18T18:20:42.014Z,3.43
2018-09-18T18:23:11.920Z,3.53
2018-09-18T18:25:39.844Z,3.10
2018-09-18T18:28:08.819Z,4.10
2018-09-18T18:30:36.707Z,3.37
2018-09-18T18:33:04.663Z,3.43
2018-09-18T18:35:32.702Z,3.50
2018-09-18T18:38:00.635Z,3.73
2018-09-18T18:40:28.511Z,3.93
2018-09-18T18:42:56.367Z,3.57
2018-09-18T18:45:24.515Z,3.77
2018-09-18T18:47:52.600Z,3.50
2018-09-18T18:50:20.457Z,3.37
2018-09-18T18:52:48.431Z,5.30
2018-09-18T18:55:16.311Z,4.53
2018-09-18T18:57:45.671Z,3.90
2018-09-18T19:00:13.547Z,3.87
2018-09-18T19:02:41.437Z,3.77
2018-09-18T19:05:09.405Z,3.30
2018-09-18T19:07:37.363Z,3.70
2018-09-18T19:10:05.296Z,4.27
2018-09-18T19:12:33.159Z,4.33
2018-09-18T19:15:01.033Z,3.87
2018-09-18T19:17:28.934Z,4.23
2018-09-18T19:19:56.896Z,3.73
2018-09-18T19:22:24.795Z,3.37
2018-09-18T19:24:52.672Z,3.93
2018-09-18T19:27:20.593Z,3.80
2018-09-18T19:29:48.576Z,3.90
2018-09-18T19:32:16.563Z,3.70
2018-09-18T19:34:44.542Z,3.33
2018-09-18T19:37:12.398Z,3.63
2018-09-18T19:39:40.915Z,4.00
2018-09-18T19:42:08.847Z,3.60
2018-09-18T19:44:36.822Z,3.80
2018-09-18T19:47:04.687Z,3.47
2018-09-18T19:49:32.655Z,3.90
2018-09-18T19:52:00.966Z,3.40
2018-09-18T19:54:28.839Z,3.40
2018-09-18T19:56:56.703Z,3.90
2018-09-18T19:59:24.690Z,3.67
2018-09-18T20:01:52.529Z,3.60
2018-09-18T20:04:20.445Z,3.20
2018-09-18T20:06:48.947Z,3.53
2018-09-18T20:09:16.915Z,3.80
2018-09-18T20:11:44.773Z,3.83
2018-09-18T20:14:12.747Z,3.53
2018-09-18T20:16:40.695Z,3.57
2018-09-18T20:19:08.661Z,3.90
2018-09-18T20:21:36.551Z,4.50
2018-09-18T20:24:04.562Z,4.67
2018-09-18T20:26:32.485Z,4.23
2018-09-18T20:29:00.547Z,3.60
2018-09-18T20:31:28.422Z,3.43
2018-09-18T20:33:56.287Z,3.93
2018-09-18T20:36:24.351Z,4.27
2018-09-18T20:38:52.229Z,4.03
2018-09-18T20:41:20.102Z,3.70
2018-09-18T20:43:47.984Z,3.53
2018-09-18T20:46:15.967Z,3.77
2018-09-18T20:48:43.823Z,4.50
2018-09-18T20:51:11.712Z,4.30
2018-09-18T20:53:39.622Z,4.17
2018-09-18T20:56:07.503Z,4.03
2018-09-18T20:58:36.143Z,4.13
2018-09-18T21:01:04.158Z,4.33
2018-09-18T21:03:32.019Z,3.80
2018-09-18T21:05:59.876Z,4.40
2018-09-18T21:08:27.950Z,4.20
2018-09-18T21:10:55.745Z,4.27
2018-09-18T21:13:23.619Z,3.97
2018-09-18T21:15:51.490Z,6.27
2018-09-18T21:18:19.400Z,4.13
2018-09-18T21:20:47.315Z,5.50
2018-09-18T21:23:15.103Z,4.37
2018-09-18T21:25:58.974Z,4.53
2018-09-18T21:28:26.900Z,4.40
2018-09-18T21:30:54.842Z,4.17
2018-09-18T21:33:22.719Z,4.20
2018-09-18T21:35:50.599Z,6.23
2018-09-18T21:38:18.548Z,6.13
2018-09-18T21:40:46.630Z,4.73
2018-09-18T21:43:14.786Z,4.70
2018-09-18T21:45:42.763Z,4.17
2018-09-18T21:48:10.900Z,4.97
2018-09-18T21:50:39.333Z,4.47
2018-09-18T21:53:08.146Z,4.57
2018-09-18T21:55:36.487Z,4.73
2018-09-18T21:58:04.455Z,4.60
2018-09-18T22:00:32.379Z,4.20
2018-09-18T22:03:00.919Z,5.13
2018-09-18T22:05:29.103Z,4.00
2018-09-18T22:07:57.138Z,4.70
2018-09-18T22:10:25.149Z,4.20
2018-09-18T22:12:53.071Z,4.70
2018-09-18T22:15:21.031Z,4.90
2018-09-18T22:17:49.154Z,4.67
2018-09-18T22:20:17.318Z,4.67
2018-09-18T22:22:45.196Z,4.50
2018-09-18T22:25:13.057Z,4.73
2018-09-18T22:27:41.056Z,5.33
2018-09-18T22:30:09.046Z,4.67
2018-09-18T22:32:36.928Z,5.87
2018-09-18T22:35:04.840Z,5.40
2018-09-18T22:37:32.721Z,5.57
2018-09-18T22:40:00.576Z,5.70
2018-09-18T22:42:28.442Z,5.40
2018-09-18T22:44:56.320Z,5.77
2018-09-18T22:47:24.182Z,5.90
2018-09-18T22:49:52.075Z,5.40
2018-09-18T22:52:19.948Z,5.53
2018-09-18T22:54:54.423Z,5.40
2018-09-18T22:59:56.849Z,5.23
2018-09-18T23:02:24.751Z,6.10
2018-09-18T23:04:52.610Z,5.57
2018-09-18T23:07:20.603Z,5.53
2018-09-18T23:09:48.647Z,6.03
2018-09-18T23:12:16.514Z,5.73
2018-09-18T23:14:44.517Z,5.97
2018-09-18T23:17:12.372Z,6.63
2018-09-18T23:19:40.235Z,5.87
2018-09-18T23:22:08.139Z,6.07
2018-09-18T23:24:35.999Z,5.70
2018-09-18T23:27:03.921Z,6.17
2018-09-18T23:29:31.816Z,5.50
2018-09-18T23:31:59.676Z,5.60
2018-09-18T23:34:27.559Z,5.90
2018-09-18T23:36:55.479Z,5.60
2018-09-18T23:39:23.362Z,5.73
2018-09-18T23:41:51.355Z,6.07
2018-09-18T23:44:19.218Z,5.90
2018-09-18T23:46:47.088Z,6.10
2018-09-18T23:49:14.951Z,6.07
2018-09-18T23:51:43.914Z,6.43
2018-09-18T23:54:11.781Z,6.67
2018-09-18T23:56:39.679Z,5.83
2018-09-18T23:59:07.619Z,6.60
